ENSO/SRP METAR and TAF weather

Enter ICAO airport designator
Station Type Date Time Source
ENSO METAR 2023/09/29 17:50 UTC NOAA

ENSO 291750Z 19012G23KT 9999 VCSH FEW014 SCT018TCU BKN030 13/13 Q1006


Station Type Date Time Source
ENSO Decoded METAR 2023/09/29 17:50 UTC NOAA

Stord / Soerstokken, Norway (ENSO) 59-48N 005-21E
Sep 29, 2023 - 01:50 PM EDT / 2023.09.29 1750 UTC
Wind: from the S (190 degrees) at 14 MPH (12 KT) gusting to 26 MPH (23 KT):0
Visibility: greater than 7 mile(s):0
Sky conditions: mostly cloudy
Weather: showers in the vicinity; Towering cumulus clouds observed
Temperature: 55 F (13 C)
Dew Point: 55 F (13 C)
Relative Humidity: 100%
Pressure (altimeter): 29.71 in. Hg (1006 hPa)
ob: ENSO 291750Z 19012G23KT 9999 VCSH FEW014 SCT018TCU BKN030 13/13 Q1006
cycle: 18

Station Type Date Time Source
ENSO TAF UTC NOAA

Error!

Example: see airport list